sensor_id;sensor_type;location;lat;lon;timestamp;P1;durP1;ratioP1;P2;durP2;ratioP2
16268;SDS011;8242;50.434;8.496;2023-02-13T15:25:22;10.98;;;5.47;;
16268;SDS011;8242;50.434;8.496;2023-02-13T15:27:54;9.10;;;5.43;;
16268;SDS011;8242;50.434;8.496;2023-02-13T15:30:23;10.20;;;5.70;;
16268;SDS011;8242;50.434;8.496;2023-02-13T15:32:56;8.70;;;5.17;;
16268;SDS011;8242;50.434;8.496;2023-02-13T15:35:25;10.73;;;5.17;;
16268;SDS011;8242;50.434;8.496;2023-02-13T15:37:53;9.13;;;5.13;;
16268;SDS011;8242;50.434;8.496;2023-02-13T15:40:21;9.00;;;4.83;;
16268;SDS011;8242;50.434;8.496;2023-02-13T15:42:50;9.03;;;4.97;;
16268;SDS011;8242;50.434;8.496;2023-02-13T15:45:18;8.27;;;5.33;;
16268;SDS011;8242;50.434;8.496;2023-02-13T15:47:46;11.70;;;5.53;;
16268;SDS011;8242;50.434;8.496;2023-02-13T15:50:19;8.33;;;4.93;;
16268;SDS011;8242;50.434;8.496;2023-02-13T15:52:50;12.23;;;5.03;;
16268;SDS011;8242;50.434;8.496;2023-02-13T15:55:18;6.73;;;4.50;;
16268;SDS011;8242;50.434;8.496;2023-02-13T15:57:46;9.20;;;5.23;;
16268;SDS011;8242;50.434;8.496;2023-02-13T16:00:16;12.67;;;6.10;;
16268;SDS011;8242;50.434;8.496;2023-02-13T16:02:48;10.63;;;5.80;;
16268;SDS011;8242;50.434;8.496;2023-02-13T16:05:15;11.20;;;5.50;;
16268;SDS011;8242;50.434;8.496;2023-02-13T16:07:48;10.80;;;5.53;;
16268;SDS011;8242;50.434;8.496;2023-02-13T16:10:22;12.00;;;6.23;;
16268;SDS011;8242;50.434;8.496;2023-02-13T16:12:52;8.83;;;5.70;;
16268;SDS011;8242;50.434;8.496;2023-02-13T16:15:21;11.67;;;6.73;;
16268;SDS011;8242;50.434;8.496;2023-02-13T16:17:50;8.47;;;6.00;;
16268;SDS011;8242;50.434;8.496;2023-02-13T16:20:17;9.20;;;5.57;;
16268;SDS011;8242;50.434;8.496;2023-02-13T16:22:48;11.37;;;6.10;;
16268;SDS011;8242;50.434;8.496;2023-02-13T16:25:20;8.07;;;5.57;;
16268;SDS011;8242;50.434;8.496;2023-02-13T16:27:50;11.40;;;6.47;;
16268;SDS011;8242;50.434;8.496;2023-02-13T16:30:26;10.43;;;6.00;;
16268;SDS011;8242;50.434;8.496;2023-02-13T16:35:53;9.27;;;5.43;;
16268;SDS011;8242;50.434;8.496;2023-02-13T16:38:33;8.90;;;5.43;;
16268;SDS011;8242;50.434;8.496;2023-02-13T16:41:02;8.50;;;5.37;;
16268;SDS011;8242;50.434;8.496;2023-02-13T16:46:19;8.17;;;5.10;;
16268;SDS011;8242;50.434;8.496;2023-02-13T16:51:43;8.60;;;5.37;;
16268;SDS011;8242;50.434;8.496;2023-02-13T16:54:25;8.43;;;5.10;;
16268;SDS011;8242;50.434;8.496;2023-02-13T16:56:56;6.07;;;4.47;;
16268;SDS011;8242;50.434;8.496;2023-02-13T16:59:27;7.20;;;4.60;;
16268;SDS011;8242;50.434;8.496;2023-02-13T17:04:45;7.83;;;4.90;;
16268;SDS011;8242;50.434;8.496;2023-02-13T17:07:16;10.17;;;5.40;;
16268;SDS011;8242;50.434;8.496;2023-02-13T17:09:49;12.80;;;5.10;;
16268;SDS011;8242;50.434;8.496;2023-02-13T17:12:18;10.90;;;5.67;;
16268;SDS011;8242;50.434;8.496;2023-02-13T17:14:45;10.93;;;5.67;;
16268;SDS011;8242;50.434;8.496;2023-02-13T17:17:13;10.80;;;5.03;;
16268;SDS011;8242;50.434;8.496;2023-02-13T17:19:41;10.57;;;5.30;;
16268;SDS011;8242;50.434;8.496;2023-02-13T17:22:11;8.70;;;4.93;;
16268;SDS011;8242;50.434;8.496;2023-02-13T17:24:44;9.37;;;4.97;;
16268;SDS011;8242;50.434;8.496;2023-02-13T17:27:12;9.97;;;5.10;;
16268;SDS011;8242;50.434;8.496;2023-02-13T17:29:38;6.27;;;4.80;;
16268;SDS011;8242;50.434;8.496;2023-02-13T17:32:07;9.17;;;5.67;;
16268;SDS011;8242;50.434;8.496;2023-02-13T17:34:36;7.90;;;4.90;;
16268;SDS011;8242;50.434;8.496;2023-02-13T17:37:03;10.87;;;6.00;;
16268;SDS011;8242;50.434;8.496;2023-02-13T17:39:33;12.27;;;6.37;;
16268;SDS011;8242;50.434;8.496;2023-02-13T17:42:00;10.77;;;6.80;;
16268;SDS011;8242;50.434;8.496;2023-02-13T17:44:28;13.37;;;6.20;;
16268;SDS011;8242;50.434;8.496;2023-02-13T17:46:54;10.47;;;5.37;;
16268;SDS011;8242;50.434;8.496;2023-02-13T17:49:21;9.17;;;5.23;;
16268;SDS011;8242;50.434;8.496;2023-02-13T17:51:48;10.97;;;6.97;;
16268;SDS011;8242;50.434;8.496;2023-02-13T17:54:14;11.60;;;5.43;;
16268;SDS011;8242;50.434;8.496;2023-02-13T17:56:41;14.10;;;5.93;;
16268;SDS011;8242;50.434;8.496;2023-02-13T17:59:08;9.63;;;5.73;;
16268;SDS011;8242;50.434;8.496;2023-02-13T18:01:36;11.63;;;6.43;;
16268;SDS011;8242;50.434;8.496;2023-02-13T18:04:02;13.57;;;5.83;;
16268;SDS011;8242;50.434;8.496;2023-02-13T18:06:29;8.60;;;6.33;;
16268;SDS011;8242;50.434;8.496;2023-02-13T18:08:56;8.67;;;5.87;;
16268;SDS011;8242;50.434;8.496;2023-02-13T18:11:22;12.60;;;6.33;;
16268;SDS011;8242;50.434;8.496;2023-02-13T18:13:49;11.17;;;5.73;;
16268;SDS011;8242;50.434;8.496;2023-02-13T18:16:16;8.23;;;5.87;;
16268;SDS011;8242;50.434;8.496;2023-02-13T18:18:44;10.50;;;6.30;;
16268;SDS011;8242;50.434;8.496;2023-02-13T18:21:10;8.73;;;6.27;;
16268;SDS011;8242;50.434;8.496;2023-02-13T18:23:37;9.17;;;6.70;;
16268;SDS011;8242;50.434;8.496;2023-02-13T18:26:05;9.30;;;6.37;;
16268;SDS011;8242;50.434;8.496;2023-02-13T18:28:32;6.00;;;5.30;;
16268;SDS011;8242;50.434;8.496;2023-02-13T18:30:59;12.93;;;5.90;;
16268;SDS011;8242;50.434;8.496;2023-02-13T18:33:26;8.47;;;5.63;;
16268;SDS011;8242;50.434;8.496;2023-02-13T18:35:58;8.43;;;5.70;;
16268;SDS011;8242;50.434;8.496;2023-02-13T18:38:25;9.65;;;6.13;;
16268;SDS011;8242;50.434;8.496;2023-02-13T18:40:52;7.20;;;5.40;;
16268;SDS011;8242;50.434;8.496;2023-02-13T18:43:19;8.40;;;5.18;;
16268;SDS011;8242;50.434;8.496;2023-02-13T18:45:46;10.17;;;5.97;;
16268;SDS011;8242;50.434;8.496;2023-02-13T18:48:13;9.13;;;6.23;;
16268;SDS011;8242;50.434;8.496;2023-02-13T18:50:40;11.30;;;6.17;;
16268;SDS011;8242;50.434;8.496;2023-02-13T18:53:08;8.37;;;6.10;;
16268;SDS011;8242;50.434;8.496;2023-02-13T18:55:35;15.70;;;5.90;;
16268;SDS011;8242;50.434;8.496;2023-02-13T18:58:02;14.20;;;6.03;;
16268;SDS011;8242;50.434;8.496;2023-02-13T19:00:29;28.88;;;6.53;;
16268;SDS011;8242;50.434;8.496;2023-02-13T19:02:56;15.13;;;5.80;;
16268;SDS011;8242;50.434;8.496;2023-02-13T19:05:23;7.63;;;5.97;;
16268;SDS011;8242;50.434;8.496;2023-02-13T19:07:50;8.87;;;5.90;;
16268;SDS011;8242;50.434;8.496;2023-02-13T19:10:19;7.77;;;5.53;;
16268;SDS011;8242;50.434;8.496;2023-02-13T19:12:46;7.93;;;6.00;;
16268;SDS011;8242;50.434;8.496;2023-02-13T19:15:13;6.57;;;5.33;;
16268;SDS011;8242;50.434;8.496;2023-02-13T19:17:40;9.70;;;5.47;;
16268;SDS011;8242;50.434;8.496;2023-02-13T19:20:07;7.67;;;5.00;;
16268;SDS011;8242;50.434;8.496;2023-02-13T19:22:35;7.87;;;5.70;;
16268;SDS011;8242;50.434;8.496;2023-02-13T19:25:01;7.07;;;5.80;;
16268;SDS011;8242;50.434;8.496;2023-02-13T19:27:29;8.20;;;5.83;;
16268;SDS011;8242;50.434;8.496;2023-02-13T19:29:56;7.83;;;6.03;;
16268;SDS011;8242;50.434;8.496;2023-02-13T19:32:23;7.90;;;5.80;;
16268;SDS011;8242;50.434;8.496;2023-02-13T19:34:49;8.13;;;5.10;;
16268;SDS011;8242;50.434;8.496;2023-02-13T19:37:16;9.73;;;5.60;;
16268;SDS011;8242;50.434;8.496;2023-02-13T19:39:43;8.70;;;5.53;;
16268;SDS011;8242;50.434;8.496;2023-02-13T19:42:10;8.57;;;5.23;;
16268;SDS011;8242;50.434;8.496;2023-02-13T19:44:38;5.27;;;4.73;;
16268;SDS011;8242;50.434;8.496;2023-02-13T19:47:04;7.50;;;5.17;;
16268;SDS011;8242;50.434;8.496;2023-02-13T19:49:31;7.90;;;5.33;;
16268;SDS011;8242;50.434;8.496;2023-02-13T19:51:58;7.30;;;5.00;;
16268;SDS011;8242;50.434;8.496;2023-02-13T19:54:24;6.57;;;5.10;;
16268;SDS011;8242;50.434;8.496;2023-02-13T19:56:51;7.60;;;4.47;;
16268;SDS011;8242;50.434;8.496;2023-02-13T19:59:24;5.97;;;4.97;;
16268;SDS011;8242;50.434;8.496;2023-02-13T20:01:52;9.23;;;5.50;;
16268;SDS011;8242;50.434;8.496;2023-02-13T20:04:19;7.60;;;4.77;;
16268;SDS011;8242;50.434;8.496;2023-02-13T20:06:45;7.00;;;5.27;;
16268;SDS011;8242;50.434;8.496;2023-02-13T20:09:13;6.83;;;4.30;;
16268;SDS011;8242;50.434;8.496;2023-02-13T20:11:39;9.03;;;4.80;;
16268;SDS011;8242;50.434;8.496;2023-02-13T20:14:07;7.60;;;4.73;;
16268;SDS011;8242;50.434;8.496;2023-02-13T20:16:38;7.40;;;5.37;;
16268;SDS011;8242;50.434;8.496;2023-02-13T20:19:08;5.70;;;4.73;;
16268;SDS011;8242;50.434;8.496;2023-02-13T20:21:36;6.63;;;4.67;;
16268;SDS011;8242;50.434;8.496;2023-02-13T20:24:05;6.10;;;4.67;;
16268;SDS011;8242;50.434;8.496;2023-02-13T20:26:33;8.93;;;4.80;;
16268;SDS011;8242;50.434;8.496;2023-02-13T20:29:00;6.70;;;5.23;;
16268;SDS011;8242;50.434;8.496;2023-02-13T20:31:27;6.87;;;4.80;;
16268;SDS011;8242;50.434;8.496;2023-02-13T20:33:55;6.53;;;4.67;;
16268;SDS011;8242;50.434;8.496;2023-02-13T20:36:24;5.67;;;4.53;;
16268;SDS011;8242;50.434;8.496;2023-02-13T20:38:53;5.93;;;4.30;;
16268;SDS011;8242;50.434;8.496;2023-02-13T20:41:24;10.90;;;5.00;;
16268;SDS011;8242;50.434;8.496;2023-02-13T20:43:55;9.43;;;4.83;;
16268;SDS011;8242;50.434;8.496;2023-02-13T20:46:23;8.30;;;4.60;;
16268;SDS011;8242;50.434;8.496;2023-02-13T20:48:50;7.27;;;4.50;;
16268;SDS011;8242;50.434;8.496;2023-02-13T20:51:17;6.53;;;4.60;;
16268;SDS011;8242;50.434;8.496;2023-02-13T20:53:45;5.73;;;4.07;;
16268;SDS011;8242;50.434;8.496;2023-02-13T20:56:13;6.87;;;4.23;;
16268;SDS011;8242;50.434;8.496;2023-02-13T20:58:42;6.43;;;4.37;;
16268;SDS011;8242;50.434;8.496;2023-02-13T21:01:10;5.67;;;4.43;;
16268;SDS011;8242;50.434;8.496;2023-02-13T21:03:37;5.77;;;4.33;;
16268;SDS011;8242;50.434;8.496;2023-02-13T21:06:05;6.00;;;4.40;;
16268;SDS011;8242;50.434;8.496;2023-02-13T21:08:33;5.63;;;4.27;;
16268;SDS011;8242;50.434;8.496;2023-02-13T21:11:01;6.97;;;4.67;;
16268;SDS011;8242;50.434;8.496;2023-02-13T21:13:28;5.60;;;4.90;;
16268;SDS011;8242;50.434;8.496;2023-02-13T21:16:01;4.60;;;3.90;;
16268;SDS011;8242;50.434;8.496;2023-02-13T21:18:29;6.80;;;4.37;;
16268;SDS011;8242;50.434;8.496;2023-02-13T21:20:56;6.10;;;4.20;;
16268;SDS011;8242;50.434;8.496;2023-02-13T21:23:22;5.03;;;4.33;;
16268;SDS011;8242;50.434;8.496;2023-02-13T21:25:49;6.23;;;4.70;;
16268;SDS011;8242;50.434;8.496;2023-02-13T21:28:17;5.07;;;3.97;;
16268;SDS011;8242;50.434;8.496;2023-02-13T21:30:44;4.60;;;4.13;;
16268;SDS011;8242;50.434;8.496;2023-02-13T21:33:11;7.77;;;4.60;;
16268;SDS011;8242;50.434;8.496;2023-02-13T21:35:37;6.20;;;4.37;;
16268;SDS011;8242;50.434;8.496;2023-02-13T21:38:04;6.87;;;4.80;;
16268;SDS011;8242;50.434;8.496;2023-02-13T21:40:31;4.63;;;3.80;;
16268;SDS011;8242;50.434;8.496;2023-02-13T21:42:57;4.67;;;3.67;;
16268;SDS011;8242;50.434;8.496;2023-02-13T21:45:25;6.13;;;4.63;;
16268;SDS011;8242;50.434;8.496;2023-02-13T21:47:53;6.43;;;4.57;;
16268;SDS011;8242;50.434;8.496;2023-02-13T21:50:19;5.13;;;4.20;;
16268;SDS011;8242;50.434;8.496;2023-02-13T21:52:47;5.13;;;4.57;;
16268;SDS011;8242;50.434;8.496;2023-02-13T21:55:13;6.57;;;4.90;;
16268;SDS011;8242;50.434;8.496;2023-02-13T21:57:40;5.17;;;4.67;;
16268;SDS011;8242;50.434;8.496;2023-02-13T22:00:07;8.43;;;4.97;;
16268;SDS011;8242;50.434;8.496;2023-02-13T22:02:37;6.03;;;5.00;;
16268;SDS011;8242;50.434;8.496;2023-02-13T22:05:04;6.47;;;5.13;;
16268;SDS011;8242;50.434;8.496;2023-02-13T22:07:31;6.93;;;5.30;;
16268;SDS011;8242;50.434;8.496;2023-02-13T22:10:19;7.07;;;5.10;;
16268;SDS011;8242;50.434;8.496;2023-02-13T22:12:49;6.77;;;4.63;;
16268;SDS011;8242;50.434;8.496;2023-02-13T22:15:16;7.03;;;4.93;;
16268;SDS011;8242;50.434;8.496;2023-02-13T22:17:44;5.77;;;5.10;;
16268;SDS011;8242;50.434;8.496;2023-02-13T22:20:11;6.90;;;5.13;;
16268;SDS011;8242;50.434;8.496;2023-02-13T22:22:38;6.57;;;5.20;;
16268;SDS011;8242;50.434;8.496;2023-02-13T22:25:05;6.17;;;5.23;;
16268;SDS011;8242;50.434;8.496;2023-02-13T22:27:32;5.40;;;4.60;;
16268;SDS011;8242;50.434;8.496;2023-02-13T22:29:59;5.57;;;5.07;;
16268;SDS011;8242;50.434;8.496;2023-02-13T22:32:25;7.13;;;5.40;;
16268;SDS011;8242;50.434;8.496;2023-02-13T22:34:53;7.07;;;4.90;;
16268;SDS011;8242;50.434;8.496;2023-02-13T22:37:20;6.20;;;4.70;;
16268;SDS011;8242;50.434;8.496;2023-02-13T22:39:47;6.23;;;5.10;;
16268;SDS011;8242;50.434;8.496;2023-02-13T22:42:13;5.50;;;4.80;;
16268;SDS011;8242;50.434;8.496;2023-02-13T22:44:40;6.43;;;5.03;;
16268;SDS011;8242;50.434;8.496;2023-02-13T22:47:07;7.07;;;5.63;;
16268;SDS011;8242;50.434;8.496;2023-02-13T22:49:33;5.70;;;4.73;;
16268;SDS011;8242;50.434;8.496;2023-02-13T22:52:01;7.70;;;5.20;;
16268;SDS011;8242;50.434;8.496;2023-02-13T22:54:28;6.13;;;5.13;;
16268;SDS011;8242;50.434;8.496;2023-02-13T22:56:55;6.07;;;4.87;;
16268;SDS011;8242;50.434;8.496;2023-02-13T22:59:22;6.07;;;4.33;;
16268;SDS011;8242;50.434;8.496;2023-02-13T23:01:48;6.83;;;4.80;;
16268;SDS011;8242;50.434;8.496;2023-02-13T23:04:15;6.70;;;4.90;;
16268;SDS011;8242;50.434;8.496;2023-02-13T23:06:42;5.50;;;4.87;;
16268;SDS011;8242;50.434;8.496;2023-02-13T23:09:10;6.43;;;5.30;;
16268;SDS011;8242;50.434;8.496;2023-02-13T23:11:36;7.17;;;4.97;;
16268;SDS011;8242;50.434;8.496;2023-02-13T23:14:21;10.67;;;5.90;;
16268;SDS011;8242;50.434;8.496;2023-02-13T23:16:49;5.47;;;4.83;;
16268;SDS011;8242;50.434;8.496;2023-02-13T23:19:33;7.23;;;5.07;;
16268;SDS011;8242;50.434;8.496;2023-02-13T23:22:00;6.07;;;4.80;;
16268;SDS011;8242;50.434;8.496;2023-02-13T23:24:28;6.47;;;5.03;;
16268;SDS011;8242;50.434;8.496;2023-02-13T23:26:55;5.33;;;4.87;;
16268;SDS011;8242;50.434;8.496;2023-02-13T23:29:22;6.07;;;4.83;;
16268;SDS011;8242;50.434;8.496;2023-02-13T23:31:48;6.07;;;4.67;;
16268;SDS011;8242;50.434;8.496;2023-02-13T23:34:15;5.47;;;4.93;;
16268;SDS011;8242;50.434;8.496;2023-02-13T23:36:42;5.63;;;5.03;;
16268;SDS011;8242;50.434;8.496;2023-02-13T23:39:09;5.80;;;5.13;;
16268;SDS011;8242;50.434;8.496;2023-02-13T23:41:37;5.50;;;4.93;;
16268;SDS011;8242;50.434;8.496;2023-02-13T23:44:03;5.10;;;4.60;;
16268;SDS011;8242;50.434;8.496;2023-02-13T23:46:30;6.80;;;5.40;;
16268;SDS011;8242;50.434;8.496;2023-02-13T23:48:57;5.40;;;4.70;;
16268;SDS011;8242;50.434;8.496;2023-02-13T23:51:23;5.80;;;5.10;;
16268;SDS011;8242;50.434;8.496;2023-02-13T23:53:50;6.50;;;5.13;;
16268;SDS011;8242;50.434;8.496;2023-02-13T23:56:20;6.70;;;4.70;;
16268;SDS011;8242;50.434;8.496;2023-02-13T23:58:48;5.60;;;4.57;;
